createdAt,value
2022-09-27T00:00:33.076Z,2.28
2022-09-27T00:06:09.174Z,3.10
2022-09-27T00:11:33.896Z,2.65
2022-09-27T00:16:54.788Z,2.60
2022-09-27T00:22:15.504Z,2.90
2022-09-27T00:27:36.391Z,2.13
2022-09-27T00:32:57.111Z,2.40
2022-09-27T00:38:18.249Z,1.98
2022-09-27T00:43:52.635Z,2.25
2022-09-27T00:49:45.902Z,1.77
2022-09-27T00:55:16.563Z,2.25
2022-09-27T01:00:42.598Z,2.00
2022-09-27T01:06:06.662Z,1.83
2022-09-27T01:11:49.520Z,1.67
2022-09-27T01:17:39.555Z,1.80
2022-09-27T01:23:10.418Z,1.67
2022-09-27T01:28:52.664Z,1.98
2022-09-27T01:34:25.830Z,1.98
2022-09-27T01:40:08.650Z,1.77
2022-09-27T01:46:08.750Z,2.03
2022-09-27T01:52:00.990Z,1.90
2022-09-27T01:57:28.050Z,1.98
2022-09-27T02:02:57.255Z,2.15
2022-09-27T02:08:52.861Z,2.33
2022-09-27T02:14:50.958Z,1.80
2022-09-27T02:20:31.702Z,1.63
2022-09-27T02:26:37.692Z,1.90
2022-09-27T02:31:58.699Z,1.48
2022-09-27T02:37:19.923Z,1.25
2022-09-27T02:42:44.517Z,1.10
2022-09-27T02:48:13.119Z,1.30
2022-09-27T02:53:52.341Z,1.15
2022-09-27T02:59:54.699Z,1.08
2022-09-27T03:05:30.654Z,1.30
2022-09-27T03:10:51.967Z,0.98
2022-09-27T03:16:13.302Z,0.75
2022-09-27T03:22:06.179Z,1.35
2022-09-27T03:27:27.276Z,1.10
2022-09-27T03:32:47.980Z,1.40
2022-09-27T03:38:29.021Z,1.35
2022-09-27T03:43:49.780Z,1.58
2022-09-27T03:49:13.325Z,1.02
2022-09-27T03:54:34.755Z,0.93
2022-09-27T03:59:56.159Z,1.15
2022-09-27T04:05:35.401Z,1.00
2022-09-27T04:11:07.679Z,1.20
2022-09-27T04:16:28.923Z,1.10
2022-09-27T04:22:15.548Z,1.20
2022-09-27T04:27:37.640Z,1.15
2022-09-27T04:32:58.795Z,1.30
2022-09-27T04:38:42.234Z,1.20
2022-09-27T04:44:05.232Z,1.00
2022-09-27T04:49:25.975Z,1.27
2022-09-27T04:54:47.842Z,1.00
2022-09-27T05:00:09.941Z,1.00
2022-09-27T05:05:31.989Z,0.90
2022-09-27T05:10:52.749Z,0.90
2022-09-27T05:16:13.981Z,1.20
2022-09-27T05:21:54.798Z,0.80
2022-09-27T05:27:20.607Z,0.93
2022-09-27T05:32:44.105Z,0.82
2022-09-27T05:38:19.814Z,1.02
2022-09-27T05:43:43.457Z,0.95
2022-09-27T05:49:06.815Z,0.70
2022-09-27T05:54:29.987Z,1.08
2022-09-27T05:59:52.263Z,0.90
2022-09-27T06:05:16.244Z,0.70
2022-09-27T06:10:38.092Z,0.70
2022-09-27T06:16:00.842Z,0.73
2022-09-27T06:21:23.145Z,1.05
2022-09-27T06:26:49.472Z,0.80
2022-09-27T06:32:29.346Z,1.30
2022-09-27T06:38:11.299Z,1.08
2022-09-27T06:43:38.511Z,0.95
2022-09-27T06:49:00.236Z,0.70
2022-09-27T06:54:20.965Z,0.60
2022-09-27T07:00:00.275Z,0.70
2022-09-27T07:05:44.192Z,0.82
2022-09-27T07:11:23.697Z,0.73
2022-09-27T07:16:46.238Z,0.80
2022-09-27T07:22:07.698Z,0.70
2022-09-27T07:27:29.412Z,0.57
2022-09-27T07:32:50.723Z,0.60
2022-09-27T07:38:16.582Z,0.60
2022-09-27T07:43:37.853Z,0.75
2022-09-27T07:49:00.455Z,0.90
2022-09-27T07:54:48.301Z,0.47
2022-09-27T08:00:19.858Z,0.50
2022-09-27T08:05:45.808Z,0.55
2022-09-27T08:11:15.409Z,0.73
2022-09-27T08:16:37.566Z,0.50
2022-09-27T08:22:26.715Z,0.82
2022-09-27T08:28:04.739Z,0.68
2022-09-27T08:33:39.112Z,0.63
2022-09-27T08:39:02.377Z,0.70
2022-09-27T08:45:02.379Z,0.35
2022-09-27T08:50:30.520Z,0.60
2022-09-27T08:55:58.030Z,0.63
2022-09-27T09:01:27.893Z,0.70
2022-09-27T09:07:09.899Z,0.70
2022-09-27T09:12:56.146Z,0.32
2022-09-27T09:18:50.337Z,0.30
2022-09-27T09:24:32.082Z,0.35
2022-09-27T09:29:59.770Z,0.50
2022-09-27T09:35:27.972Z,0.22
2022-09-27T09:41:11.612Z,0.25
2022-09-27T09:46:45.779Z,0.55
2022-09-27T09:52:15.219Z,0.40
2022-09-27T09:57:42.713Z,0.20
2022-09-27T10:03:09.953Z,0.30
2022-09-27T10:08:31.417Z,0.30
2022-09-27T10:14:18.693Z,0.32
2022-09-27T10:19:39.884Z,0.30
2022-09-27T10:25:08.369Z,0.30
2022-09-27T10:30:57.255Z,0.20
2022-09-27T10:36:32.597Z,0.30
2022-09-27T10:41:53.863Z,0.30
2022-09-27T10:47:32.318Z,0.17
2022-09-27T10:53:19.266Z,0.20
2022-09-27T10:58:48.780Z,0.20
2022-09-27T11:04:33.886Z,0.25
2022-09-27T11:10:03.126Z,0.10
2022-09-27T11:15:31.113Z,0.10
2022-09-27T11:21:13.929Z,0.08
2022-09-27T11:27:02.863Z,0.55
2022-09-27T11:32:42.269Z,0.10
2022-09-27T11:38:40.880Z,0.17
2022-09-27T11:44:13.499Z,0.10
2022-09-27T11:49:59.963Z,0.20
2022-09-27T11:55:33.352Z,0.15
2022-09-27T12:01:17.063Z,0.17
2022-09-27T12:07:04.238Z,0.20
2022-09-27T12:12:35.626Z,0.20
2022-09-27T12:18:17.072Z,0.20
2022-09-27T12:23:43.970Z,0.30
2022-09-27T12:29:36.339Z,0.40
2022-09-27T12:35:05.506Z,0.32
2022-09-27T12:40:34.537Z,0.10
2022-09-27T12:46:34.968Z,0.30
2022-09-27T12:52:01.294Z,0.30
2022-09-27T12:57:29.991Z,0.20
2022-09-27T13:03:29.563Z,0.20
2022-09-27T13:09:11.489Z,0.30
2022-09-27T13:14:42.746Z,0.15
2022-09-27T13:20:31.429Z,0.10
2022-09-27T13:26:03.832Z,0.20
2022-09-27T13:32:10.351Z,0.10
2022-09-27T13:37:59.634Z,0.20
2022-09-27T13:43:59.605Z,0.43
2022-09-27T13:49:43.475Z,0.28
2022-09-27T13:55:47.061Z,0.20
2022-09-27T14:01:42.603Z,0.30
2022-09-27T14:07:05.227Z,0.25
2022-09-27T14:12:35.941Z,0.40
2022-09-27T14:18:00.245Z,0.32
2022-09-27T14:23:27.173Z,0.50
2022-09-27T14:28:50.427Z,0.50
2022-09-27T14:34:24.381Z,1.70
2022-09-27T14:39:59.477Z,0.75
2022-09-27T14:45:39.209Z,0.20
2022-09-27T14:51:14.059Z,0.22
2022-09-27T14:56:38.474Z,0.20
2022-09-27T15:02:05.633Z,0.50
2022-09-27T15:07:27.217Z,0.25
2022-09-27T15:12:57.920Z,0.30
2022-09-27T15:18:40.977Z,0.20
2022-09-27T15:24:03.162Z,0.30
2022-09-27T15:29:25.930Z,0.20
2022-09-27T15:34:46.686Z,0.30
2022-09-27T15:40:45.631Z,0.40
2022-09-27T15:46:27.364Z,0.50
2022-09-27T15:51:54.260Z,0.30
2022-09-27T15:57:15.200Z,0.30
2022-09-27T16:02:37.113Z,0.35
2022-09-27T16:07:59.442Z,0.50
2022-09-27T16:13:20.610Z,0.50
2022-09-27T16:18:41.233Z,0.30
2022-09-27T16:24:06.190Z,0.60
2022-09-27T16:29:30.729Z,0.40
2022-09-27T16:34:51.726Z,0.35
2022-09-27T16:40:15.327Z,0.70
2022-09-27T16:45:36.839Z,0.47
2022-09-27T16:51:22.232Z,0.60
2022-09-27T16:56:43.394Z,0.60
2022-09-27T17:02:05.645Z,0.80
2022-09-27T17:07:28.428Z,0.80
2022-09-27T17:12:49.624Z,1.20
2022-09-27T17:18:12.737Z,1.02
2022-09-27T17:23:34.462Z,1.23
2022-09-27T17:28:57.388Z,1.35
2022-09-27T17:34:18.340Z,1.48
2022-09-27T17:39:41.772Z,1.42
2022-09-27T17:45:03.470Z,1.42
2022-09-27T17:50:30.160Z,1.45
2022-09-27T17:55:51.103Z,1.52
2022-09-27T18:01:12.196Z,1.45
2022-09-27T18:06:44.446Z,1.55
2022-09-27T18:12:05.963Z,1.60
2022-09-27T18:17:28.004Z,1.52
2022-09-27T18:22:48.872Z,1.83
2022-09-27T18:28:09.632Z,1.55
2022-09-27T18:33:31.703Z,1.75
2022-09-27T18:38:58.260Z,1.70
2022-09-27T18:44:20.138Z,2.67
2022-09-27T18:49:41.293Z,2.90
2022-09-27T18:55:02.431Z,1.77
2022-09-27T19:00:23.191Z,1.50
2022-09-27T19:05:43.985Z,2.38
2022-09-27T19:11:08.859Z,2.28
2022-09-27T19:16:30.295Z,1.80
2022-09-27T19:21:51.099Z,1.77
2022-09-27T19:27:14.575Z,2.13
2022-09-27T19:32:35.703Z,3.10
2022-09-27T19:37:56.361Z,1.67
2022-09-27T19:43:17.126Z,2.35
2022-09-27T19:48:38.590Z,2.17
2022-09-27T19:53:59.378Z,2.38
2022-09-27T19:59:20.498Z,1.92
2022-09-27T20:04:41.668Z,2.03
2022-09-27T20:10:03.110Z,2.20
2022-09-27T20:15:23.927Z,2.20
2022-09-27T20:20:44.907Z,2.47
2022-09-27T20:26:10.644Z,1.70
2022-09-27T20:31:34.371Z,2.40
2022-09-27T20:36:55.366Z,1.80
2022-09-27T20:42:16.152Z,1.80
2022-09-27T20:47:38.563Z,1.83
2022-09-27T20:52:59.576Z,1.80
2022-09-27T20:58:20.237Z,1.50
2022-09-27T21:03:44.908Z,1.83
2022-09-27T21:09:07.050Z,1.65
2022-09-27T21:14:27.978Z,1.75
2022-09-27T21:19:48.899Z,1.90
2022-09-27T21:25:09.696Z,1.67
2022-09-27T21:30:31.156Z,1.50
2022-09-27T21:35:51.790Z,1.55
2022-09-27T21:41:14.844Z,1.25
2022-09-27T21:46:41.013Z,1.50
2022-09-27T21:52:02.083Z,1.30
2022-09-27T21:57:23.183Z,1.55
2022-09-27T22:02:44.165Z,1.50
2022-09-27T22:08:05.827Z,1.05
2022-09-27T22:13:28.466Z,1.45
2022-09-27T22:18:52.227Z,1.00
2022-09-27T22:24:15.784Z,1.20
2022-09-27T22:29:36.569Z,1.33
2022-09-27T22:34:57.359Z,1.20
2022-09-27T22:40:18.468Z,1.27
2022-09-27T22:45:39.125Z,1.75
2022-09-27T22:51:00.436Z,1.33
2022-09-27T22:56:21.563Z,1.23
2022-09-27T23:01:42.361Z,1.33
2022-09-27T23:07:03.049Z,1.35
2022-09-27T23:12:23.792Z,1.58
2022-09-27T23:17:50.269Z,1.52
2022-09-27T23:23:13.813Z,1.42
2022-09-27T23:28:35.331Z,1.65
2022-09-27T23:33:57.825Z,1.42
2022-09-27T23:39:18.892Z,1.10
2022-09-27T23:44:40.059Z,1.17
2022-09-27T23:50:02.484Z,1.23
2022-09-27T23:55:23.205Z,1.00
